• Join FlightAware (Why Join?)
  • Login
  • US Flag 
06:40PM EDT


 

Airport Tracker/Info


-or-


 

Live Flight TrackerFlight Track Log ✈ N28SP ✈ 28-Mar-2014 ✈ CYYR - BIKF / KEF

Flight Track Log - Related Links

Times and Time Zones

All times are in EDT time to prevent confusion due to time zone crossing. See the N28SP flight status page for this flight to view local times or setup timezone preferences in your user account.

Time Position Orientation Groundspeed Altitude Reporting Facility
EDT Latitude Longitude Course Direction KTS MPH feet Rate Location/Type
02:18PM 53.2833 -60.4667 321° Northwest 180 207 3,000  Level Gander Center
02:19PM 53.3333 -60.5333 321° Northwest 190 219 6,400 3,300 Climbing Gander Center
02:20PM 53.3667 -60.4667 333° Northwest 230 265 9,700 3,360 Climbing Gander Center
02:21PM 53.4167 -60.3500 54° Northeast 250 288 13,200 3,000 Climbing Gander Center
02:22PM 53.4667 -60.2667 45° Northeast 280 322 15,800 2,400 Climbing Gander Center
02:23PM 53.5167 -60.2167 31° Northeast 270 311 18,000 2,160 Climbing Gander Center
02:24PM 53.5667 -60.1000 54° Northeast 280 322 20,200 2,160 Climbing Gander Center
02:25PM 53.6333 -59.9833 46° Northeast 320 368 22,400 2,220 Climbing Gander Center
02:26PM 53.7167 -59.9000 31° Northeast 330 380 24,700 2,160 Climbing Gander Center
02:27PM 53.7833 -59.7833 46° Northeast 330 380 26,800 2,100 Climbing Gander Center
02:28PM 53.8500 -59.6667 46° Northeast 330 380 28,900 1,980 Climbing Gander Center
02:29PM 53.9167 -59.5833 36° Northeast 330 380 30,800 1,680 Climbing Gander Center
02:30PM 53.9833 -59.4833 41° Northeast 320 368 32,300 1,260 Climbing Gander Center
02:31PM 54.0500 -59.3667 46° Northeast 330 380 33,400 1,200 Climbing Gander Center
02:32PM 54.1167 -59.2500 46° Northeast 330 380 34,700 1,200 Climbing Gander Center
02:33PM 54.1833 -59.1667 36° Northeast 330 380 35,800 900 Climbing Gander Center
02:34PM 54.2500 -59.0500 46° Northeast 330 380 36,500 600 Climbing Gander Center
02:35PM 54.3333 -58.9667 30° Northeast 330 380 37,100 600 Climbing Gander Center
02:36PM 54.3833 -58.8500 54° Northeast 340 391 37,800 600 Climbing Gander Center
02:37PM 54.4500 -58.7167 49° Northeast 340 391 38,400 600 Climbing Gander Center
02:38PM 54.5333 -58.6000 39° Northeast 340 391 39,000 540 Climbing Gander Center
02:39PM 54.6000 -58.5167 36° Northeast 330 380 39,500 540 Climbing Gander Center
02:40PM 54.6667 -58.4000 45° Northeast 330 380 40,100 420 Climbing Gander Center
02:41PM 54.7333 -58.3000 41° Northeast 330 380 40,400 300 Climbing Gander Center
02:42PM 54.8000 -58.1833 45° Northeast 330 380 40,700 300 Climbing Gander Center
02:43PM 54.8500 -58.0667 53° Northeast 330 380 41,000 120 Climbing Gander Center
02:44PM 54.9333 -57.9667 35° Northeast 340 391 41,000  Level Gander Center
02:45PM 55.0000 -57.8500 45° Northeast 350 403 41,000  Level Gander Center
02:46PM 55.0667 -57.7167 49° Northeast 350 403 41,000  Level Gander Center
02:47PM 55.1500 -57.6000 39° Northeast 360 414 41,000  Level Gander Center
02:48PM 55.2333 -57.4667 42° Northeast 360 414 41,000  Level Gander Center
02:49PM 55.2833 -57.3500 53° Northeast 370 426 41,000  Level Gander Center
02:50PM 55.3667 -57.2167 42° Northeast 370 426 41,000  Level Gander Center
02:51PM 55.4500 -57.1000 38° Northeast 370 426 41,000  Level Gander Center
02:52PM 55.5167 -57.0167 54° Northeast 358 412 41,000  Level ETMS Enhanced Traffic Management System
02:52PM 55.5167 -56.9667 54° Northeast 370 426 41,000  Level Gander Center
02:53PM 55.5667 -56.8167 59° Northeast 370 426 41,000  Level Gander Center
02:54PM 55.6333 -56.6667 52° Northeast 380 437 41,000  Level Gander Center
02:55PM 55.7000 -56.5167 52° Northeast 370 426 41,000  Level Gander Center
02:56PM 55.7500 -56.3833 56° Northeast 370 426 41,000  Level Gander Center
02:57PM 55.8167 -56.2333 52° Northeast 370 426 41,000  Level Gander Center
02:58PM 55.8833 -56.0667 54° Northeast 370 426 41,000  Level Gander Center
02:59PM 55.9333 -55.9167 59° Northeast 370 426 41,000  Level Gander Center
03:00PM 55.9833 -55.7833 56° Northeast 360 414 41,000  Level Gander Center
03:01PM 56.0500 -55.6333 51° Northeast 360 414 41,000  Level Gander Center
03:02PM 56.1000 -55.4667 62° Northeast 360 414 41,000  Level Gander Center
03:03PM 56.1500 -55.3500 52° Northeast 360 414 41,000  Level Gander Center
03:04PM 56.2000 -55.1833 62° Northeast 360 414 41,000  Level Gander Center
03:05PM 56.2667 -55.0500 48° Northeast 350 403 41,000  Level Gander Center
03:06PM 56.3333 -54.9000 51° Northeast 360 414 41,000  Level Gander Center
03:07PM 56.3667 -54.7333 70° East 350 403 41,000  Level Gander Center
03:08PM 56.4333 -54.6000 48° Northeast 370 426 41,000  Level Gander Center
03:09PM 56.4833 -54.4667 56° Northeast 360 414 41,000  Level Gander Center
03:10PM 56.5500 -54.3167 51° Northeast 360 414 41,000  Level Gander Center
03:11PM 56.6000 -54.1833 56° Northeast 350 403 41,000  Level Gander Center
03:12PM 56.6500 -53.9833 65° Northeast 360 414 41,000  Level Gander Center
03:13PM 56.7167 -53.8833 39° Northeast 360 414 41,000  Level Gander Center
03:14PM 56.7667 -53.7167 61° Northeast 350 403 41,000  Level Gander Center
03:15PM 56.8000 -53.5000 74° East 370 426 41,000  Level Gander Center
03:16PM 56.8667 -53.3667 48° Northeast 370 426 41,000  Level Gander Center
03:17PM 56.9333 -53.2333 47° Northeast 370 426 41,000  Level Gander Center
03:18PM 57.0000 -53.0833 51° Northeast 370 426 41,000  Level Gander Center
03:19PM 57.0333 -52.9000 71° East 360 414 41,000  Level Gander Center
03:38PM 58.0000 -50.0000 55° Northeast 353 406 41,000  Level ETMS Enhanced Traffic Management System
04:36PM 61.0000 -40.0000 63° Northeast 366 421 41,000  Level ETMS Enhanced Traffic Management System
05:23PM 63.0000 -30.0000 70° East 398 458 41,000  Level ETMS Enhanced Traffic Management System
05:23PM 63.0000 -30.0000 70° East 398 458 41,000  Level ETMS Enhanced Traffic Management System
05:24PM 62.9673 -30.2125 71° East 366 421 41,000  Level FlightAware Transoceanic
05:25PM 62.9995 -30.0031 71° East  Level FlightAware Approximate
05:26PM 63.0314 -29.7931 71° East  Level FlightAware Approximate
05:27PM 63.0324 -29.7973 70° East  Level FlightAware Approximate
05:28PM 63.0655 -29.5881 71° East  Level FlightAware Approximate
05:29PM 63.2234 -28.6122 71° East 398 458 41,000  Level FlightAware Transoceanic
05:30PM 63.2593 -28.3788 71° East 398 458 41,000  Level FlightAware Transoceanic
05:31PM 63.2948 -28.1449 71° East 398 458 41,000  Level FlightAware Transoceanic
05:32PM 63.3300 -27.9104 72° East 398 458 41,000  Level FlightAware Transoceanic
05:33PM 63.3647 -27.6753 72° East 398 458 41,000  Level FlightAware Transoceanic
05:34PM 63.3991 -27.4396 72° East 398 458 41,000  Level FlightAware Transoceanic
05:35PM 63.4331 -27.2034 72° East 398 458 41,000  Level FlightAware Transoceanic
05:36PM 63.4635 -26.9893 72° East  Level FlightAware Approximate
05:37PM 63.4936 -26.7746 72° East  Level FlightAware Approximate
05:38PM 63.4841 -26.7930 77° East  Level FlightAware Approximate
05:39PM 63.5123 -26.5783 63° Northeast  Level FlightAware Approximate
05:40PM 63.5461 -26.3675 76° East  Level FlightAware Approximate
05:41PM 63.5699 -26.1483 76° East  Level FlightAware Approximate
05:42PM 63.5934 -25.9288 76° East  Level FlightAware Approximate
05:43PM 63.6223 -25.7125 72° East  Level FlightAware Approximate
05:44PM 63.6531 -25.4972 72° East  Level FlightAware Approximate
05:45PM 63.6836 -25.2814 76° East  Level FlightAware Approximate
05:46PM 63.7081 -25.0616 76° East  Level FlightAware Approximate
05:47PM 63.7323 -24.8414 76° East  Level FlightAware Approximate
05:48PM 63.7562 -24.6209 76° East  Level FlightAware Approximate
05:49PM 63.7798 -24.4000 76° East  Level FlightAware Approximate
05:50PM 63.8097 -24.1829 72° East  Level FlightAware Approximate
05:51PM 63.8388 -23.9650 77° East  Level FlightAware Approximate
05:52PM 63.8618 -23.7432 77° East  Level FlightAware Approximate
05:53PM 63.8845 -23.5210 78° East  Level FlightAware Approximate
05:54PM 63.9049 -23.2974 78° East  Level FlightAware Approximate
05:55PM 63.9233 -23.0736 76° East  Level FlightAware Approximate
05:56PM 63.9454 -22.8506 78° East  Level FlightAware Approximate
05:57PM 63.9658 -22.6266 78° East  Level FlightAware Approximate
05:58PM 63.9667 -22.6167 78° East  Level FlightAware Approximate
05:59PM 63.9850 -22.6056 78° East  Level Estimated
06:00PM 63.9850 -22.6056 78° East  Level Estimated
06:01PM 63.9850 -22.6056 78° East  Level Estimated
06:02PM 63.9850 -22.6056 78° East  Level Estimated
06:03PM 63.9850 -22.6056 78° East  Level Estimated
06:04PM 63.9850 -22.6056 78° East  Level Estimated
06:05PM 63.9850 -22.6056 78° East  Level Estimated
06:06PM 63.9850 -22.6056 78° East  Level Estimated
06:07PM 63.9850 -22.6056 78° East  Level Estimated
06:08PM 63.9850 -22.6056 78° East  Level Estimated
06:09PM 63.9850 -22.6056 78° East  Level Estimated
06:10PM 63.9850 -22.6056 78° East  Level Estimated
06:11PM 63.9850 -22.6056 78° East  Level Estimated
06:12PM 63.9850 -22.6056 78° East  Level Estimated
06:13PM 63.9850 -22.6056 78° East  Level Estimated
06:14PM 63.9850 -22.6056 78° East  Level Estimated
06:15PM 63.9850 -22.6056 78° East  Level Estimated